AMX1005 KLAX-MMGL
Flight info
| Callsign | AMX1005 |
|---|---|
| Flight time | 2h 43m |
| Altitude | 35000 |
| Route | KLAX/24L ZILLI5 ZILLI DCT CHKNN DCT OCN J1 TIJ UT4 LMM UJ3 MZT UJ7 AMULA AMUL1B MMGL/PLADE I29LX |
| Aircraft | B738/M-V/N |
Departure
| Time | 2026-04-25 19:50 |
|---|---|
| Airport | Los Angeles International Airport (KLAX) |
Arrival
| Time | 2026-04-25 22:34 |
|---|---|
| Airport | Guadalajara International Airport (MMGL) |
| Time | Latitude | Longitude | Altitude | Speed | Heading |
|---|---|---|---|---|---|
| 2026-04-25 19:26 | 33.94799 | -118.40087 | 116 ft | 0 kts | 219° |
| 2026-04-25 19:40 | 33.94809 | -118.40077 | 115 ft | 2 kts | 218° |
| 2026-04-25 19:40 | 33.94819 | -118.40063 | 115 ft | 2 kts | 251° |
| 2026-04-25 19:41 | 33.94821 | -118.40046 | 115 ft | 2 kts | 277° |
| 2026-04-25 19:41 | 33.94817 | -118.40028 | 114 ft | 2 kts | 305° |
| 2026-04-25 19:41 | 33.94806 | -118.40016 | 114 ft | 2 kts | 333° |
| 2026-04-25 19:41 | 33.94802 | -118.40014 | 114 ft | 2 kts | 342° |
| 2026-04-25 19:42 | 33.94785 | -118.40012 | 114 ft | 1 kts | 11° |
| 2026-04-25 19:42 | 33.94782 | -118.40012 | 114 ft | 0 kts | 7° |
| 2026-04-25 19:45 | 33.94796 | -118.40012 | 114 ft | 4 kts | 1° |
| 2026-04-25 19:45 | 33.94835 | -118.40032 | 114 ft | 7 kts | 304° |
| 2026-04-25 19:45 | 33.94864 | -118.40083 | 115 ft | 7 kts | 334° |
| 2026-04-25 19:46 | 33.94916 | -118.40065 | 115 ft | 9 kts | 64° |
| 2026-04-25 19:46 | 33.94931 | -118.39970 | 113 ft | 12 kts | 77° |
| 2026-04-25 19:46 | 33.94952 | -118.39932 | 113 ft | 0 kts | 38° |
| 2026-04-25 19:48 | 33.94979 | -118.39920 | 112 ft | 10 kts | 9° |
| 2026-04-25 19:48 | 33.95039 | -118.39989 | 113 ft | 16 kts | 269° |
| 2026-04-25 19:49 | 33.94999 | -118.40347 | 117 ft | 75 kts | 263° |
| 2026-04-25 19:49 | 33.94974 | -118.40582 | 120 ft | 95 kts | 262° |
| 2026-04-25 19:49 | 33.94775 | -118.42491 | 213 ft | 167 kts | 262° |
| 2026-04-25 19:49 | 33.94640 | -118.43913 | 697 ft | 176 kts | 261° |
| 2026-04-25 19:50 | 33.94381 | -118.46946 | 1737 ft | 192 kts | 265° |
| 2026-04-25 19:50 | 33.94329 | -118.48586 | 2087 ft | 203 kts | 267° |
| 2026-04-25 19:50 | 33.94288 | -118.50337 | 2436 ft | 215 kts | 266° |
| 2026-04-25 19:51 | 33.94186 | -118.52215 | 2756 ft | 230 kts | 264° |
| 2026-04-25 19:51 | 33.94028 | -118.54162 | 3201 ft | 238 kts | 264° |
| 2026-04-25 19:51 | 33.93859 | -118.56154 | 3712 ft | 245 kts | 264° |
| 2026-04-25 19:51 | 33.93689 | -118.58231 | 4247 ft | 252 kts | 263° |
| 2026-04-25 19:52 | 33.93305 | -118.60313 | 4646 ft | 263 kts | 248° |
| 2026-04-25 19:52 | 33.92280 | -118.62156 | 4963 ft | 270 kts | 225° |
| 2026-04-25 19:52 | 33.90701 | -118.63418 | 4972 ft | 271 kts | 203° |
| 2026-04-25 19:52 | 33.88892 | -118.64038 | 4967 ft | 270 kts | 188° |
| 2026-04-25 19:53 | 33.87020 | -118.64126 | 4971 ft | 271 kts | 178° |
| 2026-04-25 19:53 | 33.85127 | -118.63933 | 4967 ft | 271 kts | 171° |
| 2026-04-25 19:53 | 33.83357 | -118.63176 | 5079 ft | 270 kts | 150° |
| 2026-04-25 19:53 | 33.81793 | -118.61920 | 5564 ft | 275 kts | 147° |
| 2026-04-25 19:54 | 33.80196 | -118.60592 | 6027 ft | 277 kts | 147° |
| 2026-04-25 19:54 | 33.78594 | -118.59281 | 6499 ft | 280 kts | 148° |
| 2026-04-25 19:54 | 33.76979 | -118.57972 | 6966 ft | 281 kts | 148° |
| 2026-04-25 19:54 | 33.76447 | -118.57541 | 7121 ft | 281 kts | 148° |
| 2026-04-25 19:55 | 33.73738 | -118.55347 | 7901 ft | 284 kts | 149° |
| 2026-04-25 19:55 | 33.72099 | -118.54019 | 8372 ft | 285 kts | 149° |
| 2026-04-25 19:55 | 33.70465 | -118.52637 | 8891 ft | 289 kts | 144° |
| 2026-04-25 19:55 | 33.69067 | -118.50893 | 9401 ft | 297 kts | 127° |
| 2026-04-25 19:56 | 33.68033 | -118.48699 | 9938 ft | 303 kts | 120° |
| 2026-04-25 19:56 | 33.67132 | -118.46407 | 10452 ft | 307 kts | 119° |
| 2026-04-25 19:56 | 33.66227 | -118.44076 | 10965 ft | 309 kts | 120° |
| 2026-04-25 19:56 | 33.65291 | -118.41761 | 11474 ft | 312 kts | 122° |
| 2026-04-25 19:57 | 33.64297 | -118.39404 | 11719 ft | 326 kts | 122° |
| 2026-04-25 19:57 | 33.63224 | -118.36928 | 11971 ft | 340 kts | 122° |
| 2026-04-25 19:57 | 33.62108 | -118.34366 | 12232 ft | 353 kts | 123° |
| 2026-04-25 19:57 | 33.60957 | -118.31719 | 12458 ft | 367 kts | 122° |
| 2026-04-25 19:58 | 33.59743 | -118.28924 | 12679 ft | 382 kts | 122° |
| 2026-04-25 19:58 | 33.58482 | -118.26017 | 12851 ft | 397 kts | 122° |
| 2026-04-25 19:58 | 33.57185 | -118.23019 | 13236 ft | 405 kts | 122° |
| 2026-04-25 19:58 | 33.55897 | -118.20036 | 13747 ft | 409 kts | 122° |
| 2026-04-25 19:59 | 33.54585 | -118.16991 | 14338 ft | 412 kts | 122° |
| 2026-04-25 19:59 | 33.53257 | -118.13919 | 14899 ft | 415 kts | 122° |
| 2026-04-25 19:59 | 33.51912 | -118.10808 | 15460 ft | 419 kts | 123° |
| 2026-04-25 19:59 | 33.50570 | -118.07699 | 15991 ft | 423 kts | 123° |
| 2026-04-25 20:00 | 33.49213 | -118.04566 | 16523 ft | 426 kts | 123° |
| 2026-04-25 20:00 | 33.48733 | -118.03492 | 16725 ft | 426 kts | 124° |
| 2026-04-25 20:00 | 33.46076 | -117.98538 | 17567 ft | 424 kts | 135° |
| 2026-04-25 20:00 | 33.44102 | -117.95945 | 18097 ft | 421 kts | 141° |
| 2026-04-25 20:01 | 33.39740 | -117.91193 | 19102 ft | 424 kts | 146° |
| 2026-04-25 20:01 | 33.37497 | -117.88895 | 19636 ft | 426 kts | 146° |
| 2026-04-25 20:01 | 33.35245 | -117.86587 | 20133 ft | 428 kts | 146° |
| 2026-04-25 20:02 | 33.32991 | -117.84263 | 20586 ft | 432 kts | 145° |
| 2026-04-25 20:02 | 33.30715 | -117.81901 | 21014 ft | 436 kts | 145° |
| 2026-04-25 20:02 | 33.28408 | -117.79492 | 21450 ft | 438 kts | 144° |
| 2026-04-25 20:02 | 33.26128 | -117.77102 | 21929 ft | 440 kts | 144° |
| 2026-04-25 20:03 | 33.23806 | -117.74662 | 22219 ft | 446 kts | 144° |
| 2026-04-25 20:03 | 33.21456 | -117.72189 | 22707 ft | 447 kts | 144° |
| 2026-04-25 20:03 | 33.19124 | -117.69731 | 23166 ft | 448 kts | 144° |
| 2026-04-25 20:03 | 33.16777 | -117.67257 | 23565 ft | 451 kts | 144° |
| 2026-04-25 20:04 | 33.14442 | -117.64774 | 23930 ft | 455 kts | 144° |
| 2026-04-25 20:04 | 33.12091 | -117.62204 | 24312 ft | 458 kts | 143° |
| 2026-04-25 20:04 | 33.09748 | -117.59597 | 24648 ft | 462 kts | 143° |
| 2026-04-25 20:04 | 33.07420 | -117.56987 | 25026 ft | 465 kts | 143° |
| 2026-04-25 20:05 | 33.05045 | -117.54321 | 25394 ft | 468 kts | 143° |
| 2026-04-25 20:05 | 33.02657 | -117.51643 | 25729 ft | 471 kts | 143° |
| 2026-04-25 20:05 | 33.00274 | -117.48979 | 26009 ft | 475 kts | 143° |
| 2026-04-25 20:05 | 32.97831 | -117.46258 | 26343 ft | 477 kts | 143° |
| 2026-04-25 20:06 | 32.95411 | -117.43565 | 26723 ft | 479 kts | 143° |
| 2026-04-25 20:06 | 32.92973 | -117.40859 | 27048 ft | 481 kts | 143° |
| 2026-04-25 20:06 | 32.90505 | -117.38125 | 27329 ft | 485 kts | 143° |
| 2026-04-25 20:06 | 32.88062 | -117.35356 | 27612 ft | 491 kts | 141° |
| 2026-04-25 20:07 | 32.85765 | -117.32223 | 27887 ft | 500 kts | 134° |
| 2026-04-25 20:07 | 32.83779 | -117.28814 | 28135 ft | 507 kts | 130° |
| 2026-04-25 20:07 | 32.81765 | -117.25364 | 28533 ft | 504 kts | 132° |
| 2026-04-25 20:07 | 32.79649 | -117.22067 | 28961 ft | 496 kts | 139° |
| 2026-04-25 20:08 | 32.77230 | -117.19185 | 29372 ft | 485 kts | 148° |
| 2026-04-25 20:08 | 32.74574 | -117.16842 | 29679 ft | 475 kts | 156° |
| 2026-04-25 20:08 | 32.71703 | -117.15007 | 29969 ft | 467 kts | 163° |
| 2026-04-25 20:08 | 32.68795 | -117.13326 | 30305 ft | 469 kts | 161° |
| 2026-04-25 20:09 | 32.65938 | -117.11304 | 30746 ft | 473 kts | 155° |
| 2026-04-25 20:09 | 32.63297 | -117.08971 | 31157 ft | 478 kts | 149° |
| 2026-04-25 20:09 | 32.60829 | -117.06306 | 31410 ft | 486 kts | 144° |
| 2026-04-25 20:09 | 32.58553 | -117.03316 | 31675 ft | 494 kts | 138° |
| 2026-04-25 20:10 | 32.56479 | -117.00013 | 31992 ft | 499 kts | 133° |
| 2026-04-25 20:10 | 32.54549 | -116.96580 | 32290 ft | 500 kts | 132° |
| 2026-04-25 20:10 | 32.52629 | -116.93115 | 32549 ft | 499 kts | 133° |
| 2026-04-25 20:10 | 32.50665 | -116.89700 | 32749 ft | 498 kts | 135° |
| 2026-04-25 20:11 | 32.48680 | -116.86425 | 33054 ft | 494 kts | 136° |
| 2026-04-25 20:11 | 32.46612 | -116.83176 | 33259 ft | 492 kts | 138° |
| 2026-04-25 20:11 | 32.44492 | -116.79974 | 33614 ft | 487 kts | 139° |
| 2026-04-25 20:11 | 32.42364 | -116.76848 | 33772 ft | 488 kts | 140° |
| 2026-04-25 20:12 | 32.40197 | -116.73726 | 33910 ft | 489 kts | 140° |
| 2026-04-25 20:12 | 32.38040 | -116.70644 | 34110 ft | 489 kts | 140° |
| 2026-04-25 20:12 | 32.35863 | -116.67548 | 34312 ft | 489 kts | 140° |
| 2026-04-25 20:12 | 32.35141 | -116.66522 | 34371 ft | 489 kts | 140° |
| 2026-04-25 20:13 | 32.31530 | -116.61385 | 34840 ft | 485 kts | 140° |
| 2026-04-25 20:13 | 32.29337 | -116.58267 | 34966 ft | 486 kts | 140° |
| 2026-04-25 20:13 | 32.25021 | -116.52139 | 34957 ft | 487 kts | 140° |
| 2026-04-25 20:14 | 32.20679 | -116.45972 | 34975 ft | 487 kts | 140° |
| 2026-04-25 20:14 | 32.16349 | -116.39823 | 34982 ft | 489 kts | 140° |
| 2026-04-25 20:15 | 32.12009 | -116.33670 | 34997 ft | 488 kts | 141° |
| 2026-04-25 20:15 | 32.07654 | -116.27501 | 34995 ft | 486 kts | 140° |
| 2026-04-25 20:16 | 32.03323 | -116.21384 | 35009 ft | 488 kts | 141° |
| 2026-04-25 20:16 | 31.98986 | -116.15273 | 35007 ft | 489 kts | 140° |
| 2026-04-25 20:17 | 31.94626 | -116.09127 | 35026 ft | 487 kts | 141° |
| 2026-04-25 20:17 | 31.90277 | -116.03011 | 35025 ft | 487 kts | 141° |
| 2026-04-25 20:18 | 31.85914 | -115.96891 | 35027 ft | 489 kts | 141° |
| 2026-04-25 20:18 | 31.81521 | -115.90737 | 35016 ft | 489 kts | 141° |
| 2026-04-25 20:19 | 31.77142 | -115.84607 | 35017 ft | 488 kts | 141° |
| 2026-04-25 20:19 | 31.72806 | -115.78544 | 35021 ft | 488 kts | 141° |
| 2026-04-25 20:20 | 31.68419 | -115.72430 | 34995 ft | 490 kts | 141° |
| 2026-04-25 20:20 | 31.64030 | -115.66319 | 34984 ft | 490 kts | 141° |
| 2026-04-25 20:21 | 31.59642 | -115.60214 | 34974 ft | 490 kts | 141° |
| 2026-04-25 20:21 | 31.55230 | -115.54095 | 34961 ft | 493 kts | 141° |
| 2026-04-25 20:22 | 31.52287 | -115.50021 | 34963 ft | 493 kts | 141° |
| 2026-04-25 20:22 | 31.46376 | -115.41833 | 34948 ft | 491 kts | 141° |
| 2026-04-25 20:23 | 31.41955 | -115.35725 | 34945 ft | 491 kts | 141° |
| 2026-04-25 20:23 | 31.37544 | -115.29638 | 34928 ft | 491 kts | 141° |
| 2026-04-25 20:24 | 31.33090 | -115.23508 | 34908 ft | 493 kts | 141° |
| 2026-04-25 20:24 | 31.28665 | -115.17431 | 34897 ft | 495 kts | 141° |
| 2026-04-25 20:25 | 31.24167 | -115.11255 | 34880 ft | 494 kts | 141° |
| 2026-04-25 20:25 | 31.19742 | -115.05179 | 34866 ft | 490 kts | 141° |
| 2026-04-25 20:26 | 31.15301 | -114.99108 | 34853 ft | 492 kts | 141° |
| 2026-04-25 20:26 | 31.10835 | -114.93014 | 34845 ft | 494 kts | 141° |
| 2026-04-25 20:27 | 31.06376 | -114.86934 | 34844 ft | 493 kts | 141° |
| 2026-04-25 20:27 | 31.01918 | -114.80862 | 34842 ft | 492 kts | 141° |
| 2026-04-25 20:28 | 30.97465 | -114.74812 | 34819 ft | 495 kts | 141° |
| 2026-04-25 20:28 | 30.92974 | -114.68712 | 34832 ft | 494 kts | 141° |
| 2026-04-25 20:29 | 30.88512 | -114.62664 | 34832 ft | 494 kts | 141° |
| 2026-04-25 20:29 | 30.83996 | -114.56558 | 34835 ft | 498 kts | 141° |
| 2026-04-25 20:30 | 30.79496 | -114.50472 | 34842 ft | 493 kts | 141° |
| 2026-04-25 20:30 | 30.75004 | -114.44410 | 34846 ft | 497 kts | 142° |
| 2026-04-25 20:31 | 30.70469 | -114.38306 | 34844 ft | 497 kts | 141° |
| 2026-04-25 20:31 | 30.65961 | -114.32239 | 34847 ft | 494 kts | 142° |
| 2026-04-25 20:32 | 30.61468 | -114.26200 | 34850 ft | 495 kts | 142° |
| 2026-04-25 20:32 | 30.56954 | -114.20152 | 34844 ft | 497 kts | 142° |
| 2026-04-25 20:33 | 30.52448 | -114.14124 | 34848 ft | 496 kts | 142° |
| 2026-04-25 20:33 | 30.48672 | -114.09081 | 34843 ft | 496 kts | 142° |
| 2026-04-25 20:34 | 30.43409 | -114.02058 | 34844 ft | 496 kts | 142° |
| 2026-04-25 20:34 | 30.38885 | -113.96035 | 34846 ft | 496 kts | 142° |
| 2026-04-25 20:35 | 30.34326 | -113.89970 | 34845 ft | 495 kts | 142° |
| 2026-04-25 20:35 | 30.29809 | -113.83969 | 34843 ft | 498 kts | 142° |
| 2026-04-25 20:36 | 30.25265 | -113.77944 | 34845 ft | 496 kts | 142° |
| 2026-04-25 20:36 | 30.20709 | -113.71909 | 34848 ft | 496 kts | 142° |
| 2026-04-25 20:37 | 30.16171 | -113.65916 | 34843 ft | 498 kts | 141° |
| 2026-04-25 20:37 | 30.11593 | -113.59873 | 34849 ft | 497 kts | 142° |
| 2026-04-25 20:38 | 30.07033 | -113.53868 | 35012 ft | 500 kts | 141° |
| 2026-04-25 20:38 | 30.04711 | -113.50811 | 35256 ft | 498 kts | 141° |
| 2026-04-25 20:38 | 30.02462 | -113.47845 | 35599 ft | 494 kts | 142° |
| 2026-04-25 20:39 | 30.00185 | -113.44843 | 35890 ft | 492 kts | 142° |
| 2026-04-25 20:39 | 29.97906 | -113.41845 | 36025 ft | 493 kts | 142° |
| 2026-04-25 20:39 | 29.95645 | -113.38882 | 36145 ft | 493 kts | 142° |
| 2026-04-25 20:39 | 29.94135 | -113.36905 | 36190 ft | 495 kts | 142° |
| 2026-04-25 20:40 | 29.91075 | -113.32902 | 36394 ft | 494 kts | 142° |
| 2026-04-25 20:40 | 29.88798 | -113.29924 | 36469 ft | 495 kts | 142° |
| 2026-04-25 20:40 | 29.84228 | -113.23949 | 36729 ft | 494 kts | 142° |
| 2026-04-25 20:41 | 29.81960 | -113.20984 | 36840 ft | 494 kts | 142° |
| 2026-04-25 20:41 | 29.79691 | -113.18021 | 36924 ft | 495 kts | 142° |
| 2026-04-25 20:41 | 29.77394 | -113.15024 | 37029 ft | 494 kts | 142° |
| 2026-04-25 20:41 | 29.75134 | -113.12077 | 37125 ft | 495 kts | 142° |
| 2026-04-25 20:42 | 29.70577 | -113.06145 | 37294 ft | 495 kts | 142° |
| 2026-04-25 20:42 | 29.65978 | -113.00168 | 37420 ft | 496 kts | 142° |
| 2026-04-25 20:43 | 29.63702 | -112.97210 | 37555 ft | 495 kts | 142° |
| 2026-04-25 20:43 | 29.61429 | -112.94256 | 37735 ft | 491 kts | 142° |
| 2026-04-25 20:43 | 29.59162 | -112.91309 | 38013 ft | 487 kts | 142° |
| 2026-04-25 20:43 | 29.56934 | -112.88412 | 38227 ft | 485 kts | 142° |
| 2026-04-25 20:44 | 29.52449 | -112.82610 | 38338 ft | 486 kts | 142° |
| 2026-04-25 20:44 | 29.47936 | -112.76791 | 38460 ft | 487 kts | 142° |
| 2026-04-25 20:45 | 29.43428 | -112.70979 | 38558 ft | 489 kts | 142° |
| 2026-04-25 20:45 | 29.38870 | -112.65110 | 38604 ft | 490 kts | 142° |
| 2026-04-25 20:46 | 29.34333 | -112.59271 | 38727 ft | 490 kts | 142° |
| 2026-04-25 20:46 | 29.29785 | -112.53426 | 38839 ft | 490 kts | 141° |
| 2026-04-25 20:47 | 29.25264 | -112.47620 | 38866 ft | 490 kts | 141° |
| 2026-04-25 20:47 | 29.20716 | -112.41791 | 38865 ft | 490 kts | 141° |
| 2026-04-25 20:48 | 29.16178 | -112.35986 | 38866 ft | 490 kts | 141° |
| 2026-04-25 20:48 | 29.11638 | -112.30183 | 38867 ft | 488 kts | 142° |
| 2026-04-25 20:49 | 29.07121 | -112.24419 | 38869 ft | 487 kts | 142° |
| 2026-04-25 20:49 | 29.02595 | -112.18653 | 38872 ft | 486 kts | 141° |
| 2026-04-25 20:50 | 28.98089 | -112.12920 | 38875 ft | 485 kts | 142° |
| 2026-04-25 20:50 | 28.93584 | -112.07199 | 38875 ft | 485 kts | 142° |
| 2026-04-25 20:51 | 28.89035 | -112.01431 | 38873 ft | 485 kts | 141° |
| 2026-04-25 20:51 | 28.84534 | -111.95732 | 38872 ft | 486 kts | 141° |
| 2026-04-25 20:52 | 28.80769 | -111.90971 | 38871 ft | 486 kts | 141° |
| 2026-04-25 20:52 | 28.75481 | -111.84293 | 38868 ft | 486 kts | 141° |
| 2026-04-25 20:53 | 28.70933 | -111.78558 | 38864 ft | 487 kts | 141° |
| 2026-04-25 20:53 | 28.66387 | -111.72831 | 38862 ft | 487 kts | 141° |
| 2026-04-25 20:54 | 28.61838 | -111.67108 | 38860 ft | 487 kts | 141° |
| 2026-04-25 20:54 | 28.57295 | -111.61398 | 38862 ft | 487 kts | 141° |
| 2026-04-25 20:55 | 28.52747 | -111.55692 | 38863 ft | 488 kts | 141° |
| 2026-04-25 20:55 | 28.48190 | -111.49983 | 38866 ft | 488 kts | 141° |
| 2026-04-25 20:56 | 28.43599 | -111.44240 | 38875 ft | 489 kts | 141° |
| 2026-04-25 20:56 | 28.39036 | -111.38538 | 38883 ft | 489 kts | 140° |
| 2026-04-25 20:57 | 28.34458 | -111.32827 | 38884 ft | 489 kts | 141° |
| 2026-04-25 20:57 | 28.29901 | -111.27148 | 38884 ft | 488 kts | 141° |
| 2026-04-25 20:58 | 28.25321 | -111.21451 | 38886 ft | 487 kts | 141° |
| 2026-04-25 20:58 | 28.20780 | -111.15811 | 38890 ft | 486 kts | 141° |
| 2026-04-25 20:59 | 28.16207 | -111.10138 | 38897 ft | 486 kts | 141° |
| 2026-04-25 20:59 | 28.11640 | -111.04480 | 38903 ft | 486 kts | 141° |
| 2026-04-25 21:00 | 28.08603 | -111.00725 | 38904 ft | 487 kts | 141° |
| 2026-04-25 21:01 | 28.00224 | -110.90376 | 38904 ft | 488 kts | 141° |
| 2026-04-25 21:01 | 27.95621 | -110.84700 | 38902 ft | 488 kts | 141° |
| 2026-04-25 21:02 | 27.91016 | -110.79030 | 38895 ft | 488 kts | 141° |
| 2026-04-25 21:02 | 27.86413 | -110.73371 | 38890 ft | 489 kts | 140° |
| 2026-04-25 21:03 | 27.81808 | -110.67717 | 38884 ft | 490 kts | 140° |
| 2026-04-25 21:03 | 27.77182 | -110.62044 | 38873 ft | 491 kts | 140° |
| 2026-04-25 21:04 | 27.72537 | -110.56355 | 38873 ft | 492 kts | 140° |
| 2026-04-25 21:04 | 27.67895 | -110.50677 | 38873 ft | 492 kts | 140° |
| 2026-04-25 21:05 | 27.63214 | -110.44961 | 38874 ft | 493 kts | 140° |
| 2026-04-25 21:05 | 27.58568 | -110.39293 | 38876 ft | 494 kts | 140° |
| 2026-04-25 21:06 | 27.53875 | -110.33577 | 38877 ft | 494 kts | 141° |
| 2026-04-25 21:06 | 27.49196 | -110.27884 | 38873 ft | 493 kts | 141° |
| 2026-04-25 21:07 | 27.44523 | -110.22206 | 38875 ft | 493 kts | 141° |
| 2026-04-25 21:07 | 27.39869 | -110.16560 | 38876 ft | 492 kts | 141° |
| 2026-04-25 21:08 | 27.35215 | -110.10922 | 38879 ft | 493 kts | 141° |
| 2026-04-25 21:08 | 27.30564 | -110.05296 | 38884 ft | 493 kts | 141° |
| 2026-04-25 21:09 | 27.23545 | -109.96818 | 38887 ft | 493 kts | 141° |
| 2026-04-25 21:09 | 27.18879 | -109.91191 | 38891 ft | 493 kts | 141° |
| 2026-04-25 21:10 | 27.14190 | -109.85546 | 38884 ft | 494 kts | 141° |
| 2026-04-25 21:10 | 27.09492 | -109.79896 | 38882 ft | 495 kts | 141° |
| 2026-04-25 21:11 | 27.04801 | -109.74262 | 38883 ft | 495 kts | 141° |
| 2026-04-25 21:11 | 27.00110 | -109.68635 | 38879 ft | 495 kts | 141° |
| 2026-04-25 21:12 | 26.95390 | -109.62980 | 38866 ft | 496 kts | 141° |
| 2026-04-25 21:12 | 26.91451 | -109.58266 | 38860 ft | 497 kts | 140° |
| 2026-04-25 21:13 | 26.85930 | -109.51670 | 38858 ft | 498 kts | 140° |
| 2026-04-25 21:13 | 26.81185 | -109.46010 | 38857 ft | 499 kts | 140° |
| 2026-04-25 21:14 | 26.76383 | -109.40291 | 38856 ft | 500 kts | 140° |
| 2026-04-25 21:14 | 26.71620 | -109.34622 | 38852 ft | 502 kts | 141° |
| 2026-04-25 21:15 | 26.66851 | -109.28951 | 38852 ft | 501 kts | 141° |
| 2026-04-25 21:15 | 26.62053 | -109.23254 | 38850 ft | 501 kts | 141° |
| 2026-04-25 21:16 | 26.57261 | -109.17574 | 38857 ft | 501 kts | 141° |
| 2026-04-25 21:16 | 26.52478 | -109.11912 | 38864 ft | 502 kts | 141° |
| 2026-04-25 21:17 | 26.47699 | -109.06263 | 38868 ft | 502 kts | 141° |
| 2026-04-25 21:17 | 26.42897 | -109.00593 | 38872 ft | 503 kts | 141° |
| 2026-04-25 21:18 | 26.38091 | -108.94926 | 38867 ft | 504 kts | 141° |
| 2026-04-25 21:18 | 26.33268 | -108.89246 | 38866 ft | 504 kts | 141° |
| 2026-04-25 21:19 | 26.28441 | -108.83569 | 38861 ft | 505 kts | 141° |
| 2026-04-25 21:19 | 26.23606 | -108.77889 | 38857 ft | 506 kts | 141° |
| 2026-04-25 21:20 | 26.19548 | -108.73129 | 38862 ft | 506 kts | 141° |
| 2026-04-25 21:20 | 26.13870 | -108.66478 | 38878 ft | 507 kts | 140° |
| 2026-04-25 21:21 | 26.08989 | -108.60769 | 38883 ft | 508 kts | 140° |
| 2026-04-25 21:21 | 26.04131 | -108.55093 | 38884 ft | 509 kts | 140° |
| 2026-04-25 21:22 | 25.99246 | -108.49390 | 38878 ft | 509 kts | 141° |
| 2026-04-25 21:22 | 25.94362 | -108.43696 | 38871 ft | 509 kts | 140° |
| 2026-04-25 21:23 | 25.89454 | -108.37983 | 38870 ft | 510 kts | 140° |
| 2026-04-25 21:23 | 25.84560 | -108.32292 | 38870 ft | 510 kts | 141° |
| 2026-04-25 21:24 | 25.79662 | -108.26601 | 38878 ft | 509 kts | 140° |
| 2026-04-25 21:24 | 25.74776 | -108.20934 | 38888 ft | 508 kts | 140° |
| 2026-04-25 21:25 | 25.69896 | -108.15286 | 38900 ft | 508 kts | 140° |
| 2026-04-25 21:25 | 25.64985 | -108.09606 | 38904 ft | 507 kts | 141° |
| 2026-04-25 21:26 | 25.60110 | -108.03976 | 38901 ft | 508 kts | 141° |
| 2026-04-25 21:26 | 25.55216 | -107.98330 | 38894 ft | 508 kts | 140° |
| 2026-04-25 21:27 | 25.50287 | -107.92652 | 38880 ft | 509 kts | 140° |
| 2026-04-25 21:27 | 25.45388 | -107.87015 | 38878 ft | 509 kts | 140° |
| 2026-04-25 21:28 | 25.40473 | -107.81365 | 38886 ft | 510 kts | 140° |
| 2026-04-25 21:28 | 25.35567 | -107.75733 | 38891 ft | 510 kts | 140° |
| 2026-04-25 21:29 | 25.30659 | -107.70107 | 38899 ft | 510 kts | 140° |
| 2026-04-25 21:29 | 25.25703 | -107.64434 | 38903 ft | 512 kts | 140° |
| 2026-04-25 21:30 | 25.20779 | -107.58806 | 38895 ft | 512 kts | 140° |
| 2026-04-25 21:30 | 25.16635 | -107.54072 | 38895 ft | 512 kts | 140° |
| 2026-04-25 21:31 | 25.10877 | -107.47498 | 38901 ft | 513 kts | 140° |
| 2026-04-25 21:31 | 25.05921 | -107.41846 | 38924 ft | 513 kts | 140° |
| 2026-04-25 21:32 | 25.00941 | -107.36182 | 38934 ft | 513 kts | 140° |
| 2026-04-25 21:32 | 24.95959 | -107.30524 | 38945 ft | 512 kts | 140° |
| 2026-04-25 21:33 | 24.91014 | -107.24914 | 38946 ft | 512 kts | 140° |
| 2026-04-25 21:33 | 24.86060 | -107.19299 | 38926 ft | 512 kts | 140° |
| 2026-04-25 21:34 | 24.81083 | -107.13660 | 38916 ft | 512 kts | 140° |
| 2026-04-25 21:34 | 24.76136 | -107.08069 | 38910 ft | 512 kts | 140° |
| 2026-04-25 21:35 | 24.71133 | -107.02419 | 38916 ft | 512 kts | 140° |
| 2026-04-25 21:35 | 24.66156 | -106.96804 | 38921 ft | 512 kts | 139° |
| 2026-04-25 21:36 | 24.61181 | -106.91197 | 38930 ft | 513 kts | 140° |
| 2026-04-25 21:36 | 24.56183 | -106.85573 | 38951 ft | 513 kts | 140° |
| 2026-04-25 21:37 | 24.52046 | -106.80924 | 38962 ft | 513 kts | 139° |
| 2026-04-25 21:37 | 24.46234 | -106.74398 | 38975 ft | 512 kts | 139° |
| 2026-04-25 21:38 | 24.41257 | -106.68815 | 39002 ft | 511 kts | 139° |
| 2026-04-25 21:38 | 24.36282 | -106.63245 | 39005 ft | 512 kts | 139° |
| 2026-04-25 21:39 | 24.31296 | -106.57670 | 39037 ft | 512 kts | 139° |
| 2026-04-25 21:39 | 24.26299 | -106.52087 | 39057 ft | 511 kts | 139° |
| 2026-04-25 21:40 | 24.21324 | -106.46534 | 39079 ft | 510 kts | 139° |
| 2026-04-25 21:40 | 24.16322 | -106.40960 | 39065 ft | 510 kts | 139° |
| 2026-04-25 21:41 | 24.11324 | -106.35398 | 39054 ft | 511 kts | 139° |
| 2026-04-25 21:41 | 24.06342 | -106.29858 | 39022 ft | 510 kts | 139° |
| 2026-04-25 21:42 | 24.01340 | -106.24303 | 39016 ft | 509 kts | 139° |
| 2026-04-25 21:42 | 23.96364 | -106.18783 | 39017 ft | 509 kts | 139° |
| 2026-04-25 21:43 | 23.91350 | -106.13225 | 39022 ft | 509 kts | 139° |
| 2026-04-25 21:43 | 23.86353 | -106.07695 | 39014 ft | 509 kts | 139° |
| 2026-04-25 21:44 | 23.81353 | -106.02171 | 38981 ft | 510 kts | 139° |
| 2026-04-25 21:45 | 23.73866 | -105.93909 | 39040 ft | 509 kts | 139° |
| 2026-04-25 21:45 | 23.68857 | -105.88386 | 39116 ft | 509 kts | 139° |
| 2026-04-25 21:46 | 23.63889 | -105.82916 | 39154 ft | 508 kts | 139° |
| 2026-04-25 21:46 | 23.58865 | -105.77392 | 39139 ft | 509 kts | 139° |
| 2026-04-25 21:47 | 23.53835 | -105.71868 | 39110 ft | 509 kts | 139° |
| 2026-04-25 21:47 | 23.48834 | -105.66383 | 39080 ft | 511 kts | 139° |
| 2026-04-25 21:48 | 23.43824 | -105.60892 | 39137 ft | 510 kts | 139° |
| 2026-04-25 21:48 | 23.38807 | -105.55399 | 39156 ft | 508 kts | 139° |
| 2026-04-25 21:49 | 23.33804 | -105.49927 | 39173 ft | 508 kts | 139° |
| 2026-04-25 21:49 | 23.28780 | -105.44442 | 39176 ft | 509 kts | 138° |
| 2026-04-25 21:50 | 23.23808 | -105.39019 | 39179 ft | 508 kts | 138° |
| 2026-04-25 21:50 | 23.18805 | -105.33569 | 39158 ft | 507 kts | 139° |
| 2026-04-25 21:51 | 23.13769 | -105.28088 | 39131 ft | 508 kts | 139° |
| 2026-04-25 21:51 | 23.08782 | -105.22668 | 39097 ft | 508 kts | 139° |
| 2026-04-25 21:52 | 23.03795 | -105.17251 | 39060 ft | 508 kts | 139° |
| 2026-04-25 21:52 | 22.98769 | -105.11799 | 39014 ft | 508 kts | 139° |
| 2026-04-25 21:53 | 22.93758 | -105.06370 | 39049 ft | 507 kts | 139° |
| 2026-04-25 21:53 | 22.88758 | -105.00957 | 39096 ft | 507 kts | 138° |
| 2026-04-25 21:54 | 22.83773 | -104.95566 | 39145 ft | 506 kts | 138° |
| 2026-04-25 21:54 | 22.78775 | -104.90170 | 39194 ft | 506 kts | 138° |
| 2026-04-25 21:55 | 22.73787 | -104.84789 | 39222 ft | 506 kts | 138° |
| 2026-04-25 21:55 | 22.68811 | -104.79428 | 39221 ft | 506 kts | 138° |
| 2026-04-25 21:56 | 22.63806 | -104.74041 | 39261 ft | 505 kts | 138° |
| 2026-04-25 21:56 | 22.58807 | -104.68666 | 39226 ft | 505 kts | 138° |
| 2026-04-25 21:57 | 22.53828 | -104.63316 | 39186 ft | 504 kts | 138° |
| 2026-04-25 21:57 | 22.48852 | -104.57977 | 39116 ft | 504 kts | 138° |
| 2026-04-25 21:58 | 22.43876 | -104.52646 | 39041 ft | 506 kts | 138° |
| 2026-04-25 21:58 | 22.38859 | -104.47275 | 39015 ft | 504 kts | 138° |
| 2026-04-25 21:59 | 22.33881 | -104.41952 | 39086 ft | 504 kts | 138° |
| 2026-04-25 21:59 | 22.28898 | -104.36629 | 39139 ft | 503 kts | 137° |
| 2026-04-25 22:00 | 22.21461 | -104.28695 | 39203 ft | 502 kts | 138° |
| 2026-04-25 22:00 | 22.16478 | -104.23386 | 39197 ft | 502 kts | 138° |
| 2026-04-25 22:01 | 22.11482 | -104.18070 | 39196 ft | 501 kts | 138° |
| 2026-04-25 22:01 | 22.07367 | -104.13693 | 38955 ft | 500 kts | 138° |
| 2026-04-25 22:02 | 22.04087 | -104.10205 | 38369 ft | 492 kts | 138° |
| 2026-04-25 22:02 | 22.01662 | -104.07627 | 37808 ft | 488 kts | 138° |
| 2026-04-25 22:02 | 21.99239 | -104.05054 | 37169 ft | 486 kts | 138° |
| 2026-04-25 22:02 | 21.96821 | -104.02490 | 36507 ft | 485 kts | 138° |
| 2026-04-25 22:03 | 21.94413 | -103.99937 | 35828 ft | 485 kts | 138° |
| 2026-04-25 22:03 | 21.92018 | -103.97401 | 35079 ft | 485 kts | 138° |
| 2026-04-25 22:03 | 21.89632 | -103.94877 | 34319 ft | 486 kts | 138° |
| 2026-04-25 22:03 | 21.87199 | -103.92303 | 33522 ft | 488 kts | 138° |
| 2026-04-25 22:04 | 21.84791 | -103.89758 | 32747 ft | 489 kts | 138° |
| 2026-04-25 22:04 | 21.82344 | -103.87172 | 31963 ft | 492 kts | 137° |
| 2026-04-25 22:04 | 21.79870 | -103.84558 | 31120 ft | 495 kts | 137° |
| 2026-04-25 22:04 | 21.77427 | -103.81979 | 30247 ft | 500 kts | 137° |
| 2026-04-25 22:05 | 21.74922 | -103.79333 | 29324 ft | 504 kts | 137° |
| 2026-04-25 22:05 | 21.72427 | -103.76701 | 28363 ft | 508 kts | 137° |
| 2026-04-25 22:05 | 21.69885 | -103.74020 | 27360 ft | 512 kts | 137° |
| 2026-04-25 22:05 | 21.67323 | -103.71374 | 26326 ft | 514 kts | 139° |
| 2026-04-25 22:06 | 21.64595 | -103.68878 | 25278 ft | 509 kts | 145° |
| 2026-04-25 22:06 | 21.61592 | -103.66966 | 24472 ft | 495 kts | 158° |
| 2026-04-25 22:06 | 21.58452 | -103.65644 | 24244 ft | 474 kts | 162° |
| 2026-04-25 22:06 | 21.55327 | -103.64541 | 24255 ft | 467 kts | 165° |
| 2026-04-25 22:07 | 21.52195 | -103.63527 | 24262 ft | 470 kts | 165° |
| 2026-04-25 22:07 | 21.50090 | -103.62868 | 24267 ft | 471 kts | 166° |
| 2026-04-25 22:07 | 21.45881 | -103.61560 | 24279 ft | 470 kts | 166° |
| 2026-04-25 22:07 | 21.42742 | -103.60580 | 24274 ft | 471 kts | 165° |
| 2026-04-25 22:08 | 21.39586 | -103.59564 | 24263 ft | 470 kts | 164° |
| 2026-04-25 22:08 | 21.36542 | -103.58403 | 24252 ft | 452 kts | 158° |
| 2026-04-25 22:08 | 21.33856 | -103.56771 | 24274 ft | 446 kts | 145° |
| 2026-04-25 22:08 | 21.31504 | -103.54537 | 24253 ft | 453 kts | 134° |
| 2026-04-25 22:09 | 21.29529 | -103.51870 | 24240 ft | 453 kts | 125° |
| 2026-04-25 22:09 | 21.27794 | -103.49018 | 23565 ft | 462 kts | 122° |
| 2026-04-25 22:09 | 21.26133 | -103.46065 | 22330 ft | 467 kts | 120° |
| 2026-04-25 22:09 | 21.24518 | -103.43058 | 21209 ft | 465 kts | 119° |
| 2026-04-25 22:10 | 21.22935 | -103.40047 | 20457 ft | 455 kts | 119° |
| 2026-04-25 22:10 | 21.21408 | -103.37123 | 19705 ft | 445 kts | 118° |
| 2026-04-25 22:10 | 21.19915 | -103.34272 | 18911 ft | 437 kts | 119° |
| 2026-04-25 22:10 | 21.18445 | -103.31471 | 18109 ft | 430 kts | 119° |
| 2026-04-25 22:11 | 21.16990 | -103.28709 | 17338 ft | 423 kts | 119° |
| 2026-04-25 22:11 | 21.15540 | -103.25967 | 16632 ft | 418 kts | 119° |
| 2026-04-25 22:11 | 21.14125 | -103.23304 | 16156 ft | 412 kts | 119° |
| 2026-04-25 22:11 | 21.12718 | -103.20667 | 16078 ft | 396 kts | 119° |
| 2026-04-25 22:12 | 21.11347 | -103.18197 | 16094 ft | 378 kts | 122° |
| 2026-04-25 22:12 | 21.09827 | -103.15886 | 16111 ft | 374 kts | 128° |
| 2026-04-25 22:12 | 21.08083 | -103.13713 | 16116 ft | 394 kts | 132° |
| 2026-04-25 22:12 | 21.06818 | -103.12296 | 16120 ft | 402 kts | 134° |
| 2026-04-25 22:13 | 21.04131 | -103.09469 | 16123 ft | 404 kts | 135° |
| 2026-04-25 22:13 | 21.02109 | -103.07401 | 16121 ft | 402 kts | 136° |
| 2026-04-25 22:13 | 21.00060 | -103.05311 | 16127 ft | 402 kts | 135° |
| 2026-04-25 22:13 | 20.98050 | -103.03247 | 16126 ft | 402 kts | 135° |
| 2026-04-25 22:14 | 20.96010 | -103.01138 | 16122 ft | 403 kts | 135° |
| 2026-04-25 22:14 | 20.93985 | -102.99033 | 15921 ft | 404 kts | 135° |
| 2026-04-25 22:14 | 20.92005 | -102.96967 | 15537 ft | 398 kts | 135° |
| 2026-04-25 22:14 | 20.90022 | -102.94893 | 14934 ft | 397 kts | 135° |
| 2026-04-25 22:15 | 20.88040 | -102.92818 | 14272 ft | 399 kts | 135° |
| 2026-04-25 22:15 | 20.86056 | -102.90741 | 13662 ft | 398 kts | 135° |
| 2026-04-25 22:15 | 20.84088 | -102.88681 | 13246 ft | 391 kts | 135° |
| 2026-04-25 22:16 | 20.80338 | -102.84762 | 13105 ft | 358 kts | 135° |
| 2026-04-25 22:16 | 20.78582 | -102.82928 | 13104 ft | 341 kts | 135° |
| 2026-04-25 22:16 | 20.76921 | -102.81194 | 13104 ft | 326 kts | 135° |
| 2026-04-25 22:16 | 20.75339 | -102.79540 | 13100 ft | 310 kts | 135° |
| 2026-04-25 22:17 | 20.73811 | -102.77944 | 13109 ft | 294 kts | 135° |
| 2026-04-25 22:17 | 20.72384 | -102.76454 | 13099 ft | 286 kts | 135° |
| 2026-04-25 22:17 | 20.70911 | -102.75008 | 13094 ft | 290 kts | 139° |
| 2026-04-25 22:17 | 20.69329 | -102.73668 | 13097 ft | 289 kts | 143° |
| 2026-04-25 22:18 | 20.67689 | -102.72383 | 13098 ft | 288 kts | 144° |
| 2026-04-25 22:18 | 20.66093 | -102.71152 | 13096 ft | 280 kts | 144° |
| 2026-04-25 22:18 | 20.64494 | -102.69907 | 13095 ft | 289 kts | 143° |
| 2026-04-25 22:18 | 20.62848 | -102.68610 | 13093 ft | 289 kts | 143° |
| 2026-04-25 22:19 | 20.61246 | -102.67339 | 13092 ft | 288 kts | 143° |
| 2026-04-25 22:19 | 20.59615 | -102.66040 | 13089 ft | 289 kts | 143° |
| 2026-04-25 22:19 | 20.58001 | -102.64754 | 13084 ft | 289 kts | 143° |
| 2026-04-25 22:19 | 20.56372 | -102.63457 | 13082 ft | 288 kts | 143° |
| 2026-04-25 22:20 | 20.54680 | -102.62302 | 13076 ft | 289 kts | 154° |
| 2026-04-25 22:20 | 20.52739 | -102.61677 | 13074 ft | 288 kts | 171° |
| 2026-04-25 22:20 | 20.50736 | -102.61453 | 13066 ft | 289 kts | 176° |
| 2026-04-25 22:20 | 20.48769 | -102.61309 | 13060 ft | 275 kts | 178° |
| 2026-04-25 22:21 | 20.46953 | -102.61595 | 13060 ft | 252 kts | 205° |
| 2026-04-25 22:21 | 20.45610 | -102.62669 | 13068 ft | 236 kts | 230° |
| 2026-04-25 22:21 | 20.44721 | -102.64133 | 13067 ft | 237 kts | 246° |
| 2026-04-25 22:21 | 20.44174 | -102.65791 | 13063 ft | 236 kts | 258° |
| 2026-04-25 22:22 | 20.43911 | -102.67475 | 13062 ft | 225 kts | 264° |
| 2026-04-25 22:22 | 20.43752 | -102.69118 | 13071 ft | 223 kts | 265° |
| 2026-04-25 22:22 | 20.43586 | -102.70775 | 12991 ft | 225 kts | 264° |
| 2026-04-25 22:22 | 20.43395 | -102.72443 | 12791 ft | 225 kts | 263° |
| 2026-04-25 22:23 | 20.43196 | -102.74087 | 12535 ft | 222 kts | 263° |
| 2026-04-25 22:23 | 20.42998 | -102.75698 | 12277 ft | 220 kts | 263° |
| 2026-04-25 22:23 | 20.42801 | -102.77315 | 12025 ft | 219 kts | 263° |
| 2026-04-25 22:23 | 20.42605 | -102.78927 | 11767 ft | 218 kts | 263° |
| 2026-04-25 22:24 | 20.42410 | -102.80524 | 11510 ft | 217 kts | 263° |
| 2026-04-25 22:24 | 20.42217 | -102.82108 | 11255 ft | 216 kts | 263° |
| 2026-04-25 22:24 | 20.42024 | -102.83688 | 11007 ft | 214 kts | 263° |
| 2026-04-25 22:24 | 20.41830 | -102.85272 | 10775 ft | 215 kts | 263° |
| 2026-04-25 22:25 | 20.41637 | -102.86848 | 10520 ft | 213 kts | 263° |
| 2026-04-25 22:25 | 20.41448 | -102.88390 | 10257 ft | 208 kts | 262° |
| 2026-04-25 22:25 | 20.41264 | -102.89897 | 10028 ft | 204 kts | 262° |
| 2026-04-25 22:25 | 20.41072 | -102.91461 | 9805 ft | 219 kts | 262° |
| 2026-04-25 22:26 | 20.40874 | -102.93078 | 9518 ft | 220 kts | 262° |
| 2026-04-25 22:26 | 20.40676 | -102.94693 | 9405 ft | 217 kts | 262° |
| 2026-04-25 22:26 | 20.40480 | -102.96287 | 9350 ft | 220 kts | 262° |
| 2026-04-25 22:26 | 20.40280 | -102.97913 | 9288 ft | 220 kts | 262° |
| 2026-04-25 22:27 | 20.40082 | -102.99527 | 9216 ft | 219 kts | 262° |
| 2026-04-25 22:27 | 20.39911 | -103.01145 | 9140 ft | 219 kts | 267° |
| 2026-04-25 22:27 | 20.40112 | -103.02702 | 9091 ft | 200 kts | 290° |
| 2026-04-25 22:27 | 20.40689 | -103.03976 | 9075 ft | 185 kts | 296° |
| 2026-04-25 22:28 | 20.41275 | -103.05212 | 9073 ft | 186 kts | 295° |
| 2026-04-25 22:28 | 20.41808 | -103.06441 | 9055 ft | 185 kts | 293° |
| 2026-04-25 22:28 | 20.42297 | -103.07700 | 8993 ft | 176 kts | 291° |
| 2026-04-25 22:28 | 20.42721 | -103.08903 | 8875 ft | 175 kts | 289° |
| 2026-04-25 22:29 | 20.43111 | -103.10116 | 8655 ft | 168 kts | 287° |
| 2026-04-25 22:29 | 20.43448 | -103.11276 | 8447 ft | 162 kts | 285° |
| 2026-04-25 22:29 | 20.43761 | -103.12470 | 8268 ft | 169 kts | 284° |
| 2026-04-25 22:30 | 20.44599 | -103.14938 | 7770 ft | 189 kts | 305° |
| 2026-04-25 22:30 | 20.45522 | -103.15969 | 7409 ft | 192 kts | 312° |
| 2026-04-25 22:30 | 20.46260 | -103.17133 | 7177 ft | 184 kts | 295° |
| 2026-04-25 22:30 | 20.46611 | -103.17944 | 7028 ft | 180 kts | 294° |
| 2026-04-25 22:31 | 20.47272 | -103.19531 | 6751 ft | 169 kts | 294° |
| 2026-04-25 22:31 | 20.47743 | -103.20637 | 6556 ft | 160 kts | 294° |
| 2026-04-25 22:31 | 20.48203 | -103.21719 | 6374 ft | 158 kts | 294° |
| 2026-04-25 22:31 | 20.48650 | -103.22780 | 6195 ft | 156 kts | 294° |
| 2026-04-25 22:32 | 20.49101 | -103.23842 | 6013 ft | 156 kts | 294° |
| 2026-04-25 22:32 | 20.49546 | -103.24892 | 5830 ft | 156 kts | 294° |
| 2026-04-25 22:32 | 20.49993 | -103.25948 | 5650 ft | 156 kts | 294° |
| 2026-04-25 22:32 | 20.50445 | -103.27014 | 5469 ft | 157 kts | 294° |
| 2026-04-25 22:33 | 20.50899 | -103.28095 | 5289 ft | 160 kts | 294° |
| 2026-04-25 22:33 | 20.51353 | -103.29160 | 5110 ft | 157 kts | 293° |
| 2026-04-25 22:33 | 20.51788 | -103.30199 | 5036 ft | 145 kts | 294° |
| 2026-04-25 22:33 | 20.52131 | -103.31001 | 5035 ft | 89 kts | 293° |
| 2026-04-25 22:34 | 20.52324 | -103.31422 | 5035 ft | 40 kts | 306° |
| 2026-04-25 22:34 | 20.52446 | -103.31550 | 5036 ft | 15 kts | 325° |
| 2026-04-25 22:34 | 20.52526 | -103.31590 | 5036 ft | 12 kts | 350° |
| 2026-04-25 22:34 | 20.52636 | -103.31557 | 5036 ft | 17 kts | 24° |
| 2026-04-25 22:35 | 20.52762 | -103.31486 | 5034 ft | 18 kts | 66° |
| 2026-04-25 22:35 | 20.52723 | -103.31364 | 5033 ft | 21 kts | 110° |
| 2026-04-25 22:35 | 20.52647 | -103.31172 | 5033 ft | 34 kts | 114° |
| 2026-04-25 22:35 | 20.52532 | -103.30893 | 5030 ft | 47 kts | 114° |
| 2026-04-25 22:36 | 20.52413 | -103.30614 | 5029 ft | 30 kts | 114° |
| 2026-04-25 22:36 | 20.52327 | -103.30408 | 5029 ft | 29 kts | 113° |
| 2026-04-25 22:36 | 20.52243 | -103.30209 | 5029 ft | 28 kts | 114° |
| 2026-04-25 22:36 | 20.52161 | -103.30016 | 5029 ft | 28 kts | 113° |
| 2026-04-25 22:37 | 20.52090 | -103.29836 | 5029 ft | 19 kts | 91° |
| 2026-04-25 22:37 | 20.52188 | -103.29768 | 5029 ft | 6 kts | 17° |
| 2026-04-25 22:37 | 20.52246 | -103.29778 | 5028 ft | 11 kts | 317° |
| 2026-04-25 22:37 | 20.52300 | -103.29841 | 5027 ft | 9 kts | 2° |
| 2026-04-25 22:38 | 20.52344 | -103.29826 | 5026 ft | 1 kts | 18° |
| 2026-04-25 22:38 | 20.52346 | -103.29825 | 5026 ft | 0 kts | 18° |